sensor_id;sensor_type;location;lat;lon;timestamp;P1;durP1;ratioP1;P2;durP2;ratioP2
48859;SDS011;34679;51.436;-2.518;2022-07-01T00:01:24;9.43;;;3.00;;
48859;SDS011;34679;51.436;-2.518;2022-07-01T00:03:50;7.05;;;2.00;;
48859;SDS011;34679;51.436;-2.518;2022-07-01T00:06:16;8.05;;;2.28;;
48859;SDS011;34679;51.436;-2.518;2022-07-01T00:08:42;7.05;;;2.20;;
48859;SDS011;34679;51.436;-2.518;2022-07-01T00:11:09;8.18;;;2.25;;
48859;SDS011;34679;51.436;-2.518;2022-07-01T00:13:34;7.25;;;2.85;;
48859;SDS011;34679;51.436;-2.518;2022-07-01T00:16:00;6.70;;;2.20;;
48859;SDS011;34679;51.436;-2.518;2022-07-01T00:18:26;8.30;;;2.60;;
48859;SDS011;34679;51.436;-2.518;2022-07-01T00:20:52;15.23;;;4.10;;
48859;SDS011;34679;51.436;-2.518;2022-07-01T00:23:18;5.57;;;2.20;;
48859;SDS011;34679;51.436;-2.518;2022-07-01T00:25:44;7.00;;;2.33;;
48859;SDS011;34679;51.436;-2.518;2022-07-01T00:28:10;5.03;;;2.20;;
48859;SDS011;34679;51.436;-2.518;2022-07-01T00:30:36;5.72;;;2.28;;
48859;SDS011;34679;51.436;-2.518;2022-07-01T00:33:02;5.47;;;2.03;;
48859;SDS011;34679;51.436;-2.518;2022-07-01T00:35:29;5.90;;;2.47;;
48859;SDS011;34679;51.436;-2.518;2022-07-01T00:37:55;5.85;;;2.22;;
48859;SDS011;34679;51.436;-2.518;2022-07-01T00:40:22;4.00;;;2.00;;
48859;SDS011;34679;51.436;-2.518;2022-07-01T00:42:51;6.40;;;1.80;;
48859;SDS011;34679;51.436;-2.518;2022-07-01T00:45:16;10.68;;;2.30;;
48859;SDS011;34679;51.436;-2.518;2022-07-01T00:47:42;8.02;;;2.05;;
48859;SDS011;34679;51.436;-2.518;2022-07-01T00:50:10;9.70;;;2.60;;
48859;SDS011;34679;51.436;-2.518;2022-07-01T00:52:38;7.25;;;3.00;;
48859;SDS011;34679;51.436;-2.518;2022-07-01T00:55:06;4.20;;;2.10;;
48859;SDS011;34679;51.436;-2.518;2022-07-01T00:57:34;7.85;;;2.13;;
48859;SDS011;34679;51.436;-2.518;2022-07-01T01:00:03;6.65;;;2.10;;
48859;SDS011;34679;51.436;-2.518;2022-07-01T01:05:00;4.13;;;2.13;;
48859;SDS011;34679;51.436;-2.518;2022-07-01T01:07:26;8.48;;;2.38;;
48859;SDS011;34679;51.436;-2.518;2022-07-01T01:09:52;4.82;;;2.30;;
48859;SDS011;34679;51.436;-2.518;2022-07-01T01:12:18;4.22;;;2.35;;
48859;SDS011;34679;51.436;-2.518;2022-07-01T01:17:10;5.68;;;2.63;;
48859;SDS011;34679;51.436;-2.518;2022-07-01T01:19:35;10.98;;;2.20;;
48859;SDS011;34679;51.436;-2.518;2022-07-01T01:22:01;3.70;;;2.25;;
48859;SDS011;34679;51.436;-2.518;2022-07-01T01:24:27;3.78;;;2.30;;
48859;SDS011;34679;51.436;-2.518;2022-07-01T01:26:53;3.42;;;1.95;;
48859;SDS011;34679;51.436;-2.518;2022-07-01T01:29:18;5.57;;;2.20;;
48859;SDS011;34679;51.436;-2.518;2022-07-01T01:31:44;5.07;;;2.22;;
48859;SDS011;34679;51.436;-2.518;2022-07-01T01:34:10;10.10;;;2.45;;
48859;SDS011;34679;51.436;-2.518;2022-07-01T01:36:36;4.28;;;2.28;;
48859;SDS011;34679;51.436;-2.518;2022-07-01T01:39:02;7.30;;;2.45;;
48859;SDS011;34679;51.436;-2.518;2022-07-01T01:41:46;5.88;;;3.08;;
48859;SDS011;34679;51.436;-2.518;2022-07-01T01:44:12;4.95;;;2.25;;
48859;SDS011;34679;51.436;-2.518;2022-07-01T01:46:38;6.47;;;2.70;;
48859;SDS011;34679;51.436;-2.518;2022-07-01T01:49:05;5.93;;;2.47;;
48859;SDS011;34679;51.436;-2.518;2022-07-01T01:51:31;6.18;;;2.53;;
48859;SDS011;34679;51.436;-2.518;2022-07-01T01:53:57;9.95;;;2.60;;
48859;SDS011;34679;51.436;-2.518;2022-07-01T01:56:24;4.78;;;2.47;;
48859;SDS011;34679;51.436;-2.518;2022-07-01T01:58:50;9.45;;;3.08;;
48859;SDS011;34679;51.436;-2.518;2022-07-01T02:01:16;7.63;;;2.97;;
48859;SDS011;34679;51.436;-2.518;2022-07-01T02:03:43;5.25;;;2.85;;
48859;SDS011;34679;51.436;-2.518;2022-07-01T02:06:11;14.73;;;2.90;;
48859;SDS011;34679;51.436;-2.518;2022-07-01T02:08:38;7.57;;;3.05;;
48859;SDS011;34679;51.436;-2.518;2022-07-01T02:11:05;8.48;;;2.50;;
48859;SDS011;34679;51.436;-2.518;2022-07-01T02:13:31;7.93;;;2.55;;
48859;SDS011;34679;51.436;-2.518;2022-07-01T02:15:57;6.90;;;2.97;;
48859;SDS011;34679;51.436;-2.518;2022-07-01T02:18:23;8.57;;;3.15;;
48859;SDS011;34679;51.436;-2.518;2022-07-01T02:20:49;9.32;;;2.70;;
48859;SDS011;34679;51.436;-2.518;2022-07-01T02:23:15;5.60;;;3.00;;
48859;SDS011;34679;51.436;-2.518;2022-07-01T02:25:41;12.48;;;3.53;;
48859;SDS011;34679;51.436;-2.518;2022-07-01T02:28:07;7.13;;;2.35;;
48859;SDS011;34679;51.436;-2.518;2022-07-01T02:30:34;4.88;;;2.90;;
48859;SDS011;34679;51.436;-2.518;2022-07-01T02:33:06;11.25;;;2.53;;
48859;SDS011;34679;51.436;-2.518;2022-07-01T02:35:32;9.20;;;2.60;;
48859;SDS011;34679;51.436;-2.518;2022-07-01T02:37:59;8.30;;;2.58;;
48859;SDS011;34679;51.436;-2.518;2022-07-01T02:40:25;9.20;;;2.70;;
48859;SDS011;34679;51.436;-2.518;2022-07-01T02:42:50;13.25;;;2.72;;
48859;SDS011;34679;51.436;-2.518;2022-07-01T02:45:16;7.13;;;2.70;;
48859;SDS011;34679;51.436;-2.518;2022-07-01T02:47:42;7.00;;;3.30;;
48859;SDS011;34679;51.436;-2.518;2022-07-01T02:50:11;5.32;;;2.50;;
48859;SDS011;34679;51.436;-2.518;2022-07-01T02:52:38;5.22;;;2.65;;
48859;SDS011;34679;51.436;-2.518;2022-07-01T02:55:05;11.00;;;3.50;;
48859;SDS011;34679;51.436;-2.518;2022-07-01T02:57:32;6.63;;;3.05;;
48859;SDS011;34679;51.436;-2.518;2022-07-01T02:59:58;6.88;;;2.72;;
48859;SDS011;34679;51.436;-2.518;2022-07-01T03:02:24;8.73;;;3.47;;
48859;SDS011;34679;51.436;-2.518;2022-07-01T03:04:51;6.43;;;3.58;;
48859;SDS011;34679;51.436;-2.518;2022-07-01T03:07:18;5.32;;;2.60;;
48859;SDS011;34679;51.436;-2.518;2022-07-01T03:09:44;7.80;;;3.10;;
48859;SDS011;34679;51.436;-2.518;2022-07-01T03:12:11;5.10;;;2.47;;
48859;SDS011;34679;51.436;-2.518;2022-07-01T03:15:03;9.00;;;2.78;;
48859;SDS011;34679;51.436;-2.518;2022-07-01T03:17:38;8.32;;;3.30;;
48859;SDS011;34679;51.436;-2.518;2022-07-01T03:20:09;7.55;;;3.35;;
48859;SDS011;34679;51.436;-2.518;2022-07-01T03:22:39;9.98;;;2.40;;
48859;SDS011;34679;51.436;-2.518;2022-07-01T03:25:06;5.28;;;2.65;;
48859;SDS011;34679;51.436;-2.518;2022-07-01T03:27:32;7.82;;;2.90;;
48859;SDS011;34679;51.436;-2.518;2022-07-01T03:29:58;10.13;;;2.75;;
48859;SDS011;34679;51.436;-2.518;2022-07-01T03:32:24;8.85;;;3.30;;
48859;SDS011;34679;51.436;-2.518;2022-07-01T03:34:51;4.93;;;3.33;;
48859;SDS011;34679;51.436;-2.518;2022-07-01T03:37:18;10.63;;;3.45;;
48859;SDS011;34679;51.436;-2.518;2022-07-01T03:39:46;4.70;;;3.20;;
48859;SDS011;34679;51.436;-2.518;2022-07-01T03:42:12;8.70;;;3.03;;
48859;SDS011;34679;51.436;-2.518;2022-07-01T03:44:38;7.90;;;3.50;;
48859;SDS011;34679;51.436;-2.518;2022-07-01T03:47:04;8.18;;;3.55;;
48859;SDS011;34679;51.436;-2.518;2022-07-01T03:49:31;8.90;;;3.45;;
48859;SDS011;34679;51.436;-2.518;2022-07-01T03:51:58;7.78;;;4.28;;
48859;SDS011;34679;51.436;-2.518;2022-07-01T03:54:24;7.47;;;3.50;;
48859;SDS011;34679;51.436;-2.518;2022-07-01T03:56:59;7.03;;;3.83;;
48859;SDS011;34679;51.436;-2.518;2022-07-01T03:59:26;8.80;;;3.97;;
48859;SDS011;34679;51.436;-2.518;2022-07-01T04:01:53;9.05;;;4.00;;
48859;SDS011;34679;51.436;-2.518;2022-07-01T04:04:19;8.45;;;4.35;;
48859;SDS011;34679;51.436;-2.518;2022-07-01T04:06:45;9.55;;;3.90;;
48859;SDS011;34679;51.436;-2.518;2022-07-01T04:09:12;8.38;;;3.95;;
48859;SDS011;34679;51.436;-2.518;2022-07-01T04:11:43;5.45;;;3.17;;
48859;SDS011;34679;51.436;-2.518;2022-07-01T04:14:10;6.78;;;3.35;;
48859;SDS011;34679;51.436;-2.518;2022-07-01T04:16:36;6.13;;;3.30;;
48859;SDS011;34679;51.436;-2.518;2022-07-01T04:19:03;5.65;;;3.35;;
48859;SDS011;34679;51.436;-2.518;2022-07-01T04:21:28;6.88;;;3.20;;
48859;SDS011;34679;51.436;-2.518;2022-07-01T04:24:13;9.68;;;3.08;;
48859;SDS011;34679;51.436;-2.518;2022-07-01T04:26:39;4.00;;;2.92;;
48859;SDS011;34679;51.436;-2.518;2022-07-01T04:29:05;6.97;;;3.65;;
48859;SDS011;34679;51.436;-2.518;2022-07-01T04:31:32;4.32;;;2.35;;
48859;SDS011;34679;51.436;-2.518;2022-07-01T04:33:58;8.27;;;2.85;;
48859;SDS011;34679;51.436;-2.518;2022-07-01T04:36:24;11.43;;;2.15;;
48859;SDS011;34679;51.436;-2.518;2022-07-01T04:38:50;4.32;;;1.85;;
48859;SDS011;34679;51.436;-2.518;2022-07-01T04:41:16;5.18;;;1.83;;
48859;SDS011;34679;51.436;-2.518;2022-07-01T04:44:00;6.78;;;1.52;;
48859;SDS011;34679;51.436;-2.518;2022-07-01T04:46:26;3.70;;;1.55;;
48859;SDS011;34679;51.436;-2.518;2022-07-01T04:48:51;7.05;;;1.60;;
48859;SDS011;34679;51.436;-2.518;2022-07-01T04:51:17;7.65;;;1.33;;
48859;SDS011;34679;51.436;-2.518;2022-07-01T04:53:43;5.60;;;1.23;;
48859;SDS011;34679;51.436;-2.518;2022-07-01T04:56:08;3.63;;;1.38;;
48859;SDS011;34679;51.436;-2.518;2022-07-01T04:58:34;2.80;;;1.42;;
48859;SDS011;34679;51.436;-2.518;2022-07-01T05:01:00;8.38;;;1.70;;
48859;SDS011;34679;51.436;-2.518;2022-07-01T05:03:25;6.88;;;1.98;;
48859;SDS011;34679;51.436;-2.518;2022-07-01T05:05:51;5.55;;;1.30;;
48859;SDS011;34679;51.436;-2.518;2022-07-01T05:08:16;3.58;;;1.20;;
48859;SDS011;34679;51.436;-2.518;2022-07-01T05:10:42;4.72;;;1.30;;
48859;SDS011;34679;51.436;-2.518;2022-07-01T05:13:08;3.85;;;1.10;;
48859;SDS011;34679;51.436;-2.518;2022-07-01T05:15:33;2.85;;;1.17;;
48859;SDS011;34679;51.436;-2.518;2022-07-01T05:17:59;1.80;;;1.10;;
48859;SDS011;34679;51.436;-2.518;2022-07-01T05:20:43;5.57;;;1.58;;
48859;SDS011;34679;51.436;-2.518;2022-07-01T05:23:27;3.72;;;1.20;;
48859;SDS011;34679;51.436;-2.518;2022-07-01T05:25:53;7.32;;;1.42;;
48859;SDS011;34679;51.436;-2.518;2022-07-01T05:28:18;3.45;;;1.35;;
48859;SDS011;34679;51.436;-2.518;2022-07-01T05:30:44;5.28;;;1.52;;
48859;SDS011;34679;51.436;-2.518;2022-07-01T05:33:10;4.97;;;1.58;;
48859;SDS011;34679;51.436;-2.518;2022-07-01T05:35:36;8.98;;;1.42;;
48859;SDS011;34679;51.436;-2.518;2022-07-01T05:38:01;3.67;;;1.50;;
48859;SDS011;34679;51.436;-2.518;2022-07-01T05:40:27;12.38;;;1.85;;
48859;SDS011;34679;51.436;-2.518;2022-07-01T05:42:53;9.10;;;1.65;;
48859;SDS011;34679;51.436;-2.518;2022-07-01T05:45:19;7.57;;;1.90;;
48859;SDS011;34679;51.436;-2.518;2022-07-01T05:47:44;2.97;;;1.45;;
48859;SDS011;34679;51.436;-2.518;2022-07-01T05:50:10;3.15;;;1.33;;
48859;SDS011;34679;51.436;-2.518;2022-07-01T05:52:36;4.40;;;1.65;;
48859;SDS011;34679;51.436;-2.518;2022-07-01T05:55:02;3.58;;;2.28;;
48859;SDS011;34679;51.436;-2.518;2022-07-01T05:57:28;6.57;;;1.50;;
48859;SDS011;34679;51.436;-2.518;2022-07-01T05:59:53;7.57;;;1.73;;
48859;SDS011;34679;51.436;-2.518;2022-07-01T06:02:19;3.28;;;1.20;;
48859;SDS011;34679;51.436;-2.518;2022-07-01T06:04:45;4.85;;;1.38;;
48859;SDS011;34679;51.436;-2.518;2022-07-01T06:07:11;4.10;;;1.10;;
48859;SDS011;34679;51.436;-2.518;2022-07-01T06:09:37;3.97;;;0.98;;
48859;SDS011;34679;51.436;-2.518;2022-07-01T06:12:03;4.57;;;1.02;;
48859;SDS011;34679;51.436;-2.518;2022-07-01T06:14:30;3.45;;;1.17;;
48859;SDS011;34679;51.436;-2.518;2022-07-01T06:16:55;2.22;;;0.90;;
48859;SDS011;34679;51.436;-2.518;2022-07-01T06:19:21;5.07;;;1.00;;
48859;SDS011;34679;51.436;-2.518;2022-07-01T06:21:47;1.83;;;0.85;;
48859;SDS011;34679;51.436;-2.518;2022-07-01T06:24:13;2.72;;;0.88;;
48859;SDS011;34679;51.436;-2.518;2022-07-01T06:26:39;2.17;;;0.93;;
48859;SDS011;34679;51.436;-2.518;2022-07-01T06:29:05;13.43;;;1.70;;
48859;SDS011;34679;51.436;-2.518;2022-07-01T06:31:31;2.50;;;1.23;;
48859;SDS011;34679;51.436;-2.518;2022-07-01T06:34:00;4.22;;;0.98;;
48859;SDS011;34679;51.436;-2.518;2022-07-01T06:36:25;4.10;;;1.10;;
48859;SDS011;34679;51.436;-2.518;2022-07-01T06:38:51;3.13;;;0.95;;
48859;SDS011;34679;51.436;-2.518;2022-07-01T06:41:17;4.82;;;1.25;;
48859;SDS011;34679;51.436;-2.518;2022-07-01T06:43:53;2.95;;;1.33;;
48859;SDS011;34679;51.436;-2.518;2022-07-01T06:46:33;3.67;;;1.10;;
48859;SDS011;34679;51.436;-2.518;2022-07-01T06:48:59;2.50;;;1.00;;
48859;SDS011;34679;51.436;-2.518;2022-07-01T06:51:25;5.10;;;1.23;;
48859;SDS011;34679;51.436;-2.518;2022-07-01T06:53:51;1.80;;;1.15;;
48859;SDS011;34679;51.436;-2.518;2022-07-01T06:56:17;3.58;;;1.25;;
48859;SDS011;34679;51.436;-2.518;2022-07-01T06:58:43;5.53;;;1.15;;
48859;SDS011;34679;51.436;-2.518;2022-07-01T07:01:09;6.55;;;1.60;;
48859;SDS011;34679;51.436;-2.518;2022-07-01T07:03:35;5.93;;;1.40;;
48859;SDS011;34679;51.436;-2.518;2022-07-01T07:06:01;4.95;;;1.60;;
48859;SDS011;34679;51.436;-2.518;2022-07-01T07:08:28;6.97;;;1.23;;
48859;SDS011;34679;51.436;-2.518;2022-07-01T07:10:54;3.67;;;1.42;;
48859;SDS011;34679;51.436;-2.518;2022-07-01T07:13:20;6.72;;;1.40;;
48859;SDS011;34679;51.436;-2.518;2022-07-01T07:15:46;6.18;;;1.83;;
48859;SDS011;34679;51.436;-2.518;2022-07-01T07:18:12;9.13;;;1.58;;
48859;SDS011;34679;51.436;-2.518;2022-07-01T07:20:38;5.40;;;1.50;;
48859;SDS011;34679;51.436;-2.518;2022-07-01T07:23:03;5.90;;;1.45;;
48859;SDS011;34679;51.436;-2.518;2022-07-01T07:25:29;5.82;;;1.30;;
48859;SDS011;34679;51.436;-2.518;2022-07-01T07:27:55;7.47;;;1.50;;
48859;SDS011;34679;51.436;-2.518;2022-07-01T07:30:22;7.47;;;1.50;;
48859;SDS011;34679;51.436;-2.518;2022-07-01T07:32:48;7.30;;;1.98;;
48859;SDS011;34679;51.436;-2.518;2022-07-01T07:35:14;4.90;;;1.50;;
48859;SDS011;34679;51.436;-2.518;2022-07-01T07:37:40;6.10;;;1.45;;
48859;SDS011;34679;51.436;-2.518;2022-07-01T07:40:07;8.10;;;2.17;;
48859;SDS011;34679;51.436;-2.518;2022-07-01T07:42:39;9.75;;;1.30;;
48859;SDS011;34679;51.436;-2.518;2022-07-01T07:45:06;8.57;;;1.30;;
48859;SDS011;34679;51.436;-2.518;2022-07-01T07:47:33;10.88;;;2.28;;
48859;SDS011;34679;51.436;-2.518;2022-07-01T07:50:00;8.75;;;1.65;;
48859;SDS011;34679;51.436;-2.518;2022-07-01T07:52:27;10.43;;;1.80;;
48859;SDS011;34679;51.436;-2.518;2022-07-01T07:54:52;6.57;;;1.58;;
48859;SDS011;34679;51.436;-2.518;2022-07-01T07:57:18;9.85;;;1.45;;
48859;SDS011;34679;51.436;-2.518;2022-07-01T07:59:44;11.60;;;2.33;;
48859;SDS011;34679;51.436;-2.518;2022-07-01T08:02:09;7.30;;;1.60;;
48859;SDS011;34679;51.436;-2.518;2022-07-01T08:04:35;8.40;;;1.27;;
48859;SDS011;34679;51.436;-2.518;2022-07-01T08:07:01;8.23;;;1.98;;
48859;SDS011;34679;51.436;-2.518;2022-07-01T08:09:27;10.85;;;2.03;;
48859;SDS011;34679;51.436;-2.518;2022-07-01T08:11:52;8.27;;;2.75;;
48859;SDS011;34679;51.436;-2.518;2022-07-01T08:14:18;6.25;;;1.70;;
48859;SDS011;34679;51.436;-2.518;2022-07-01T08:16:44;10.13;;;1.60;;
48859;SDS011;34679;51.436;-2.518;2022-07-01T08:19:10;5.35;;;1.27;;
48859;SDS011;34679;51.436;-2.518;2022-07-01T08:21:35;7.38;;;1.52;;
48859;SDS011;34679;51.436;-2.518;2022-07-01T08:24:01;6.22;;;1.30;;
48859;SDS011;34679;51.436;-2.518;2022-07-01T08:26:27;7.70;;;1.77;;
48859;SDS011;34679;51.436;-2.518;2022-07-01T08:28:52;10.40;;;1.67;;
48859;SDS011;34679;51.436;-2.518;2022-07-01T08:31:18;6.50;;;1.35;;
48859;SDS011;34679;51.436;-2.518;2022-07-01T08:33:44;8.10;;;1.42;;
48859;SDS011;34679;51.436;-2.518;2022-07-01T08:36:09;9.10;;;1.60;;
48859;SDS011;34679;51.436;-2.518;2022-07-01T08:38:35;8.98;;;1.40;;
48859;SDS011;34679;51.436;-2.518;2022-07-01T08:41:02;8.88;;;1.83;;
48859;SDS011;34679;51.436;-2.518;2022-07-01T08:43:30;5.55;;;1.50;;
48859;SDS011;34679;51.436;-2.518;2022-07-01T08:45:55;9.35;;;1.52;;
48859;SDS011;34679;51.436;-2.518;2022-07-01T08:48:23;9.15;;;1.40;;
48859;SDS011;34679;51.436;-2.518;2022-07-01T08:50:50;8.27;;;1.38;;
48859;SDS011;34679;51.436;-2.518;2022-07-01T08:53:15;4.20;;;1.27;;
48859;SDS011;34679;51.436;-2.518;2022-07-01T08:55:41;3.53;;;1.05;;
48859;SDS011;34679;51.436;-2.518;2022-07-01T08:58:28;7.20;;;1.10;;
48859;SDS011;34679;51.436;-2.518;2022-07-01T09:01:14;7.88;;;1.42;;
48859;SDS011;34679;51.436;-2.518;2022-07-01T09:03:41;4.97;;;1.50;;
48859;SDS011;34679;51.436;-2.518;2022-07-01T09:06:26;8.32;;;1.05;;
48859;SDS011;34679;51.436;-2.518;2022-07-01T09:08:53;4.13;;;1.00;;
48859;SDS011;34679;51.436;-2.518;2022-07-01T09:19:06;9.88;;;1.60;;
48859;SDS011;34679;51.436;-2.518;2022-07-01T09:21:32;4.47;;;1.15;;
48859;SDS011;34679;51.436;-2.518;2022-07-01T09:23:59;6.28;;;1.30;;
48859;SDS011;34679;51.436;-2.518;2022-07-01T09:26:28;4.03;;;1.00;;
48859;SDS011;34679;51.436;-2.518;2022-07-01T09:28:55;3.17;;;1.08;;
48859;SDS011;34679;51.436;-2.518;2022-07-01T09:31:23;5.70;;;1.50;;
48859;SDS011;34679;51.436;-2.518;2022-07-01T09:34:02;5.10;;;1.30;;
48859;SDS011;34679;51.436;-2.518;2022-07-01T09:36:29;4.55;;;1.00;;
48859;SDS011;34679;51.436;-2.518;2022-07-01T09:38:54;5.78;;;1.35;;
48859;SDS011;34679;51.436;-2.518;2022-07-01T09:41:22;10.70;;;1.20;;
48859;SDS011;34679;51.436;-2.518;2022-07-01T09:43:48;4.97;;;1.10;;
48859;SDS011;34679;51.436;-2.518;2022-07-01T09:46:14;4.47;;;1.05;;
48859;SDS011;34679;51.436;-2.518;2022-07-01T09:51:06;5.43;;;1.20;;
48859;SDS011;34679;51.436;-2.518;2022-07-01T09:53:33;3.17;;;0.90;;
48859;SDS011;34679;51.436;-2.518;2022-07-01T09:55:59;4.70;;;1.08;;
48859;SDS011;34679;51.436;-2.518;2022-07-01T09:58:26;6.03;;;1.15;;
48859;SDS011;34679;51.436;-2.518;2022-07-01T10:00:52;3.03;;;1.05;;
48859;SDS011;34679;51.436;-2.518;2022-07-01T10:03:19;5.88;;;0.90;;
48859;SDS011;34679;51.436;-2.518;2022-07-01T10:05:50;3.83;;;1.08;;
48859;SDS011;34679;51.436;-2.518;2022-07-01T10:14:15;8.57;;;1.08;;
48859;SDS011;34679;51.436;-2.518;2022-07-01T10:16:45;2.05;;;0.52;;
48859;SDS011;34679;51.436;-2.518;2022-07-01T10:19:31;6.28;;;0.77;;
48859;SDS011;34679;51.436;-2.518;2022-07-01T10:22:23;3.55;;;0.73;;
48859;SDS011;34679;51.436;-2.518;2022-07-01T10:24:52;2.70;;;0.60;;
48859;SDS011;34679;51.436;-2.518;2022-07-01T10:27:21;2.00;;;0.80;;
48859;SDS011;34679;51.436;-2.518;2022-07-01T10:29:49;4.00;;;1.00;;
48859;SDS011;34679;51.436;-2.518;2022-07-01T10:32:35;3.38;;;0.80;;
48859;SDS011;34679;51.436;-2.518;2022-07-01T10:35:16;5.07;;;1.10;;
48859;SDS011;34679;51.436;-2.518;2022-07-01T10:37:58;3.08;;;0.68;;
48859;SDS011;34679;51.436;-2.518;2022-07-01T10:40:41;2.20;;;0.52;;
48859;SDS011;34679;51.436;-2.518;2022-07-01T10:43:10;4.05;;;1.42;;
48859;SDS011;34679;51.436;-2.518;2022-07-01T10:45:42;4.07;;;0.70;;
48859;SDS011;34679;51.436;-2.518;2022-07-01T10:48:22;3.65;;;0.70;;
48859;SDS011;34679;51.436;-2.518;2022-07-01T10:50:49;6.75;;;0.75;;
48859;SDS011;34679;51.436;-2.518;2022-07-01T10:53:16;3.65;;;0.65;;
48859;SDS011;34679;51.436;-2.518;2022-07-01T10:58:13;4.00;;;0.77;;
48859;SDS011;34679;51.436;-2.518;2022-07-01T11:00:43;3.50;;;0.75;;
48859;SDS011;34679;51.436;-2.518;2022-07-01T11:03:19;4.63;;;0.65;;
48859;SDS011;34679;51.436;-2.518;2022-07-01T11:05:47;5.38;;;0.77;;
48859;SDS011;34679;51.436;-2.518;2022-07-01T11:08:15;3.35;;;0.90;;
48859;SDS011;34679;51.436;-2.518;2022-07-01T11:10:41;4.45;;;0.77;;
48859;SDS011;34679;51.436;-2.518;2022-07-01T11:13:07;3.13;;;0.90;;
48859;SDS011;34679;51.436;-2.518;2022-07-01T11:15:33;3.47;;;0.90;;
48859;SDS011;34679;51.436;-2.518;2022-07-01T11:17:59;4.18;;;0.80;;
48859;SDS011;34679;51.436;-2.518;2022-07-01T11:20:27;4.50;;;0.73;;
48859;SDS011;34679;51.436;-2.518;2022-07-01T11:22:56;2.85;;;0.90;;
48859;SDS011;34679;51.436;-2.518;2022-07-01T11:25:22;2.88;;;0.82;;
48859;SDS011;34679;51.436;-2.518;2022-07-01T11:27:49;2.78;;;0.60;;
48859;SDS011;34679;51.436;-2.518;2022-07-01T11:30:16;5.10;;;0.70;;
48859;SDS011;34679;51.436;-2.518;2022-07-01T11:32:44;4.88;;;0.80;;
48859;SDS011;34679;51.436;-2.518;2022-07-01T11:35:16;1.38;;;0.60;;
48859;SDS011;34679;51.436;-2.518;2022-07-01T11:38:06;1.83;;;0.70;;
48859;SDS011;34679;51.436;-2.518;2022-07-01T11:40:59;2.40;;;0.80;;
48859;SDS011;34679;51.436;-2.518;2022-07-01T11:43:27;5.85;;;0.77;;
48859;SDS011;34679;51.436;-2.518;2022-07-01T11:45:56;1.42;;;0.47;;
48859;SDS011;34679;51.436;-2.518;2022-07-01T11:48:37;1.58;;;0.60;;
48859;SDS011;34679;51.436;-2.518;2022-07-01T11:51:06;6.85;;;0.80;;
48859;SDS011;34679;51.436;-2.518;2022-07-01T11:53:41;3.25;;;0.60;;
48859;SDS011;34679;51.436;-2.518;2022-07-01T11:56:08;4.13;;;0.80;;
48859;SDS011;34679;51.436;-2.518;2022-07-01T11:58:41;1.95;;;0.50;;
48859;SDS011;34679;51.436;-2.518;2022-07-01T12:01:27;4.03;;;0.40;;
48859;SDS011;34679;51.436;-2.518;2022-07-01T12:03:54;2.60;;;0.88;;
48859;SDS011;34679;51.436;-2.518;2022-07-01T12:06:21;4.20;;;1.00;;
48859;SDS011;34679;51.436;-2.518;2022-07-01T12:08:48;4.30;;;0.80;;
48859;SDS011;34679;51.436;-2.518;2022-07-01T12:11:15;6.78;;;0.95;;
48859;SDS011;34679;51.436;-2.518;2022-07-01T12:13:43;3.33;;;0.60;;
48859;SDS011;34679;51.436;-2.518;2022-07-01T12:16:11;5.72;;;0.95;;
48859;SDS011;34679;51.436;-2.518;2022-07-01T12:18:37;8.70;;;1.00;;
48859;SDS011;34679;51.436;-2.518;2022-07-01T12:21:03;2.92;;;0.60;;
48859;SDS011;34679;51.436;-2.518;2022-07-01T12:23:29;2.50;;;0.50;;
48859;SDS011;34679;51.436;-2.518;2022-07-01T12:25:57;2.58;;;0.50;;
48859;SDS011;34679;51.436;-2.518;2022-07-01T12:28:36;11.23;;;0.98;;
48859;SDS011;34679;51.436;-2.518;2022-07-01T12:31:07;2.05;;;0.52;;
48859;SDS011;34679;51.436;-2.518;2022-07-01T12:33:35;7.57;;;1.50;;
48859;SDS011;34679;51.436;-2.518;2022-07-01T12:36:13;6.47;;;0.93;;
48859;SDS011;34679;51.436;-2.518;2022-07-01T12:38:40;3.58;;;0.65;;
48859;SDS011;34679;51.436;-2.518;2022-07-01T12:44:19;3.25;;;0.50;;
48859;SDS011;34679;51.436;-2.518;2022-07-01T12:46:49;5.85;;;0.63;;
48859;SDS011;34679;51.436;-2.518;2022-07-01T12:49:22;1.45;;;0.50;;
48859;SDS011;34679;51.436;-2.518;2022-07-01T12:51:49;0.65;;;0.20;;
48859;SDS011;34679;51.436;-2.518;2022-07-01T12:54:33;2.58;;;0.82;;
48859;SDS011;34679;51.436;-2.518;2022-07-01T12:57:01;1.30;;;0.40;;
48859;SDS011;34679;51.436;-2.518;2022-07-01T12:59:27;1.23;;;0.50;;
48859;SDS011;34679;51.436;-2.518;2022-07-01T13:01:53;3.15;;;0.70;;
48859;SDS011;34679;51.436;-2.518;2022-07-01T13:04:26;0.85;;;0.30;;
48859;SDS011;34679;51.436;-2.518;2022-07-01T13:06:52;3.58;;;1.42;;
48859;SDS011;34679;51.436;-2.518;2022-07-01T13:09:18;1.00;;;0.30;;
48859;SDS011;34679;51.436;-2.518;2022-07-01T13:11:44;1.48;;;0.30;;
48859;SDS011;34679;51.436;-2.518;2022-07-01T13:14:10;1.75;;;0.30;;
48859;SDS011;34679;51.436;-2.518;2022-07-01T13:16:36;2.35;;;0.30;;
48859;SDS011;34679;51.436;-2.518;2022-07-01T13:19:02;2.28;;;0.50;;
48859;SDS011;34679;51.436;-2.518;2022-07-01T13:21:28;0.88;;;0.38;;
48859;SDS011;34679;51.436;-2.518;2022-07-01T13:23:55;1.95;;;0.40;;
48859;SDS011;34679;51.436;-2.518;2022-07-01T13:26:21;1.35;;;0.20;;
48859;SDS011;34679;51.436;-2.518;2022-07-01T13:28:47;0.98;;;0.30;;
48859;SDS011;34679;51.436;-2.518;2022-07-01T13:31:12;2.17;;;0.40;;
48859;SDS011;34679;51.436;-2.518;2022-07-01T13:33:38;0.75;;;0.30;;
48859;SDS011;34679;51.436;-2.518;2022-07-01T13:36:04;0.65;;;0.40;;
48859;SDS011;34679;51.436;-2.518;2022-07-01T13:38:30;0.52;;;0.40;;
48859;SDS011;34679;51.436;-2.518;2022-07-01T13:40:56;0.55;;;0.20;;
48859;SDS011;34679;51.436;-2.518;2022-07-01T13:43:22;1.90;;;0.60;;
48859;SDS011;34679;51.436;-2.518;2022-07-01T13:45:48;2.53;;;0.40;;
48859;SDS011;34679;51.436;-2.518;2022-07-01T13:48:14;1.30;;;0.60;;
48859;SDS011;34679;51.436;-2.518;2022-07-01T13:50:39;1.70;;;0.50;;
48859;SDS011;34679;51.436;-2.518;2022-07-01T13:53:05;2.10;;;0.30;;
48859;SDS011;34679;51.436;-2.518;2022-07-01T13:55:31;0.90;;;0.20;;
48859;SDS011;34679;51.436;-2.518;2022-07-01T13:57:56;7.40;;;0.40;;
48859;SDS011;34679;51.436;-2.518;2022-07-01T14:00:22;1.75;;;0.20;;
48859;SDS011;34679;51.436;-2.518;2022-07-01T14:02:48;0.77;;;0.30;;
48859;SDS011;34679;51.436;-2.518;2022-07-01T14:05:14;0.80;;;0.30;;
48859;SDS011;34679;51.436;-2.518;2022-07-01T14:07:40;1.90;;;0.63;;
48859;SDS011;34679;51.436;-2.518;2022-07-01T14:10:06;0.60;;;0.30;;
48859;SDS011;34679;51.436;-2.518;2022-07-01T14:12:32;0.82;;;0.35;;
48859;SDS011;34679;51.436;-2.518;2022-07-01T14:14:58;1.75;;;0.40;;
48859;SDS011;34679;51.436;-2.518;2022-07-01T14:17:24;2.67;;;0.47;;
48859;SDS011;34679;51.436;-2.518;2022-07-01T14:19:51;0.50;;;0.30;;
48859;SDS011;34679;51.436;-2.518;2022-07-01T14:22:16;1.38;;;0.50;;
48859;SDS011;34679;51.436;-2.518;2022-07-01T14:24:42;1.30;;;0.40;;
48859;SDS011;34679;51.436;-2.518;2022-07-01T14:27:08;1.23;;;0.43;;
48859;SDS011;34679;51.436;-2.518;2022-07-01T14:29:34;1.45;;;0.50;;
48859;SDS011;34679;51.436;-2.518;2022-07-01T14:31:59;1.00;;;0.30;;
48859;SDS011;34679;51.436;-2.518;2022-07-01T14:34:25;1.52;;;0.50;;
48859;SDS011;34679;51.436;-2.518;2022-07-01T14:36:51;0.90;;;0.40;;
48859;SDS011;34679;51.436;-2.518;2022-07-01T14:39:17;1.63;;;0.55;;
48859;SDS011;34679;51.436;-2.518;2022-07-01T14:41:42;2.15;;;0.55;;
48859;SDS011;34679;51.436;-2.518;2022-07-01T14:44:14;1.27;;;0.50;;
48859;SDS011;34679;51.436;-2.518;2022-07-01T14:46:41;2.10;;;0.60;;
48859;SDS011;34679;51.436;-2.518;2022-07-01T14:49:06;2.65;;;0.43;;
48859;SDS011;34679;51.436;-2.518;2022-07-01T14:51:32;2.92;;;0.40;;
48859;SDS011;34679;51.436;-2.518;2022-07-01T14:53:58;2.25;;;0.40;;
48859;SDS011;34679;51.436;-2.518;2022-07-01T14:56:24;4.07;;;0.40;;
48859;SDS011;34679;51.436;-2.518;2022-07-01T14:58:50;4.82;;;0.90;;
48859;SDS011;34679;51.436;-2.518;2022-07-01T15:01:15;2.05;;;0.80;;
48859;SDS011;34679;51.436;-2.518;2022-07-01T15:03:41;3.70;;;0.63;;